Mee Memorial Hospital (09CA)
King City, CA
Field Elevation: 334
Lat: 36°12.33N  Long: 121°07.95W
CTAF/Unicom Freq: 120.8000
   
     For Weather-by-Phone, call 831-386-7456
Weather Advisories
2018-06-24   20:37 Z
Altimeter 29.86" Hg
Wind 360° @ 12 KT
Gusts 20 KT
Visibility 10 SM
Ceiling FEW140 SCT190
Temperature 26° C (79° F)
Dewpoint 14° C (57° F)
Relative Humidity 47%
Density Altitude 1,700 feet
Condensation Altitude 6,400 feet
Wind and Runways
Indicated Runway = 27
Headwind = 0 kt
Crosswind = 12 kt
History
 
 
 
More Info
NOAA Forecast
 
 
About Us
Belfort Instrument
 
 
FAA Disclaimer: The data displayed is for advisory purposes only and is not to be used for flight planning or operations. For official data, please call 831-386-7456 to hear the current automated AWOS voice message.
  METAR 09CA 242037Z AUTO 36012G20KT 10 SM FEW140 SCT190 26/14 A2986